createdAt,value
2018-06-19T00:01:52.172Z,11.53
2018-06-19T00:04:20.630Z,11.00
2018-06-19T00:06:49.248Z,10.47
2018-06-19T00:09:17.842Z,10.27
2018-06-19T00:11:46.488Z,10.60
2018-06-19T00:14:15.018Z,11.20
2018-06-19T00:16:43.906Z,11.20
2018-06-19T00:19:12.435Z,10.27
2018-06-19T00:21:48.805Z,11.23
2018-06-19T00:24:17.523Z,10.53
2018-06-19T00:26:46.169Z,10.60
2018-06-19T00:29:14.719Z,9.47
2018-06-19T00:31:43.278Z,9.77
2018-06-19T00:34:11.794Z,9.57
2018-06-19T00:36:40.326Z,10.13
2018-06-19T00:39:10.535Z,10.53
2018-06-19T00:41:39.042Z,9.40
2018-06-19T00:44:08.302Z,10.67
2018-06-19T00:46:38.920Z,8.97
2018-06-19T00:49:08.050Z,10.40
2018-06-19T00:51:36.561Z,8.67
2018-06-19T00:54:05.114Z,8.43
2018-06-19T00:56:44.817Z,10.47
2018-06-19T00:59:13.320Z,9.53
2018-06-19T01:01:41.877Z,9.00
2018-06-19T01:04:10.456Z,10.57
2018-06-19T01:06:38.998Z,9.60
2018-06-19T01:09:09.416Z,9.70
2018-06-19T01:11:38.136Z,9.67
2018-06-19T01:14:07.023Z,10.27
2018-06-19T01:16:35.482Z,9.80
2018-06-19T01:19:04.057Z,9.47
2018-06-19T01:21:32.526Z,10.17
2018-06-19T01:24:01.073Z,10.20
2018-06-19T01:26:29.598Z,9.80
2018-06-19T01:28:58.139Z,9.37
2018-06-19T01:31:26.706Z,9.40
2018-06-19T01:33:55.311Z,8.90
2018-06-19T01:36:23.432Z,8.93
2018-06-19T01:38:52.011Z,9.20
2018-06-19T01:41:21.756Z,10.53
2018-06-19T01:43:50.852Z,10.40
2018-06-19T01:46:19.469Z,10.23
2018-06-19T01:48:47.933Z,9.90
2018-06-19T01:51:16.517Z,9.87
2018-06-19T01:53:44.683Z,8.93
2018-06-19T01:56:13.155Z,8.50
2018-06-19T01:58:41.636Z,7.97
2018-06-19T02:01:10.116Z,8.77
2018-06-19T02:03:38.628Z,8.13
2018-06-19T02:06:07.159Z,8.00
2018-06-19T02:08:35.642Z,9.40
2018-06-19T02:11:04.120Z,7.80
2018-06-19T02:13:32.834Z,7.23
2018-06-19T02:16:01.416Z,7.70
2018-06-19T02:18:29.906Z,8.30
2018-06-19T02:20:58.452Z,7.40
2018-06-19T02:23:26.976Z,7.10
2018-06-19T02:25:55.452Z,8.00
2018-06-19T02:28:23.997Z,8.73
2018-06-19T02:30:52.537Z,8.37
2018-06-19T02:33:20.984Z,7.83
2018-06-19T02:35:49.447Z,8.50
2018-06-19T02:38:17.977Z,7.07
2018-06-19T02:40:46.763Z,8.03
2018-06-19T02:43:15.277Z,7.20
2018-06-19T02:45:43.766Z,7.77
2018-06-19T02:48:12.275Z,6.40
2018-06-19T02:50:40.806Z,6.97
2018-06-19T02:53:09.929Z,6.50
2018-06-19T02:55:38.425Z,7.33
2018-06-19T02:58:06.878Z,7.03
2018-06-19T03:00:35.318Z,5.80
2018-06-19T03:03:03.839Z,6.40
2018-06-19T03:05:32.273Z,6.47
2018-06-19T03:08:00.780Z,6.20
2018-06-19T03:10:29.278Z,5.90
2018-06-19T03:12:58.105Z,5.70
2018-06-19T03:15:26.718Z,5.90
2018-06-19T03:17:55.345Z,6.83
2018-06-19T03:20:23.860Z,6.33
2018-06-19T03:22:52.316Z,5.80
2018-06-19T03:25:20.792Z,5.67
2018-06-19T03:27:48.915Z,5.53
2018-06-19T03:30:17.509Z,5.73
2018-06-19T03:32:45.922Z,5.63
2018-06-19T03:35:14.459Z,5.47
2018-06-19T03:37:42.936Z,5.40
2018-06-19T03:40:12.290Z,6.37
2018-06-19T03:42:40.748Z,6.00
2018-06-19T03:45:09.282Z,6.27
2018-06-19T03:47:37.783Z,5.50
2018-06-19T03:50:06.292Z,5.70
2018-06-19T03:52:34.749Z,6.60
2018-06-19T03:55:03.290Z,6.40
2018-06-19T03:57:31.764Z,7.40
2018-06-19T04:00:00.213Z,6.30
2018-06-19T04:02:28.674Z,5.60
2018-06-19T04:04:57.175Z,6.80
2018-06-19T04:07:25.733Z,6.57
2018-06-19T04:09:54.234Z,6.10
2018-06-19T04:12:22.850Z,7.13
2018-06-19T04:14:51.052Z,7.00
2018-06-19T04:17:25.858Z,7.30
2018-06-19T04:19:55.514Z,6.23
2018-06-19T04:22:24.509Z,7.37
2018-06-19T04:24:53.244Z,7.03
2018-06-19T04:27:21.703Z,7.77
2018-06-19T04:29:50.230Z,9.00
2018-06-19T04:32:18.752Z,7.60
2018-06-19T04:34:47.233Z,8.43
2018-06-19T04:37:15.872Z,8.37
2018-06-19T04:39:44.392Z,7.00
2018-06-19T04:42:13.268Z,8.03
2018-06-19T04:44:41.816Z,8.27
2018-06-19T04:47:10.327Z,7.67
2018-06-19T04:49:38.979Z,7.80
2018-06-19T04:52:07.458Z,7.47
2018-06-19T04:54:35.968Z,8.23
2018-06-19T04:57:04.502Z,9.27
2018-06-19T04:59:33.088Z,7.73
2018-06-19T05:02:01.546Z,8.30
2018-06-19T05:04:30.100Z,7.30
2018-06-19T05:06:58.689Z,8.63
2018-06-19T05:09:28.278Z,8.30
2018-06-19T05:11:56.819Z,8.57
2018-06-19T05:14:25.309Z,8.00
2018-06-19T05:16:54.209Z,9.70
2018-06-19T05:19:22.766Z,8.10
2018-06-19T05:21:51.911Z,7.83
2018-06-19T05:24:20.524Z,8.60
2018-06-19T05:26:49.078Z,7.90
2018-06-19T05:29:17.637Z,8.20
2018-06-19T05:31:46.656Z,7.70
2018-06-19T05:34:16.367Z,8.70
2018-06-19T05:36:44.911Z,7.60
2018-06-19T05:39:13.523Z,8.50
2018-06-19T05:41:42.160Z,8.37
2018-06-19T05:44:10.781Z,7.67
2018-06-19T05:46:39.420Z,7.83
2018-06-19T05:49:08.553Z,7.90
2018-06-19T05:51:37.184Z,7.77
2018-06-19T05:54:05.713Z,8.77
2018-06-19T05:56:34.208Z,7.00
2018-06-19T05:59:02.741Z,7.80
2018-06-19T06:01:31.222Z,8.77
2018-06-19T06:03:59.690Z,7.10
2018-06-19T06:06:28.165Z,7.70
2018-06-19T06:08:56.681Z,7.43
2018-06-19T06:11:25.189Z,8.30
2018-06-19T06:13:53.812Z,8.07
2018-06-19T06:16:22.411Z,8.57
2018-06-19T06:18:50.998Z,6.87
2018-06-19T06:21:20.035Z,8.57
2018-06-19T06:23:48.737Z,8.07
2018-06-19T06:26:17.601Z,8.10
2018-06-19T06:28:46.848Z,7.80
2018-06-19T06:31:15.544Z,7.57
2018-06-19T06:33:45.237Z,8.10
2018-06-19T06:36:15.093Z,7.80
2018-06-19T06:38:44.487Z,8.57
2018-06-19T06:41:13.624Z,7.90
2018-06-19T06:43:42.151Z,7.13
2018-06-19T06:46:10.573Z,7.37
2018-06-19T06:48:39.146Z,7.90
2018-06-19T06:51:07.658Z,6.30
2018-06-19T06:53:36.133Z,6.70
2018-06-19T06:56:05.389Z,6.60
2018-06-19T06:58:34.776Z,6.47
2018-06-19T07:01:03.301Z,6.20
2018-06-19T07:03:31.774Z,7.17
2018-06-19T07:06:00.228Z,7.23
2018-06-19T07:08:28.734Z,6.67
2018-06-19T07:10:57.241Z,6.30
2018-06-19T07:13:26.164Z,6.10
2018-06-19T07:15:54.680Z,6.70
2018-06-19T07:18:23.566Z,7.07
2018-06-19T07:20:52.117Z,6.30
2018-06-19T07:23:20.581Z,6.20
2018-06-19T07:25:49.512Z,7.70
2018-06-19T07:28:18.260Z,6.80
2018-06-19T07:30:46.954Z,6.00
2018-06-19T07:33:15.567Z,5.80
2018-06-19T07:35:44.821Z,7.03
2018-06-19T07:38:13.619Z,7.40
2018-06-19T07:40:42.065Z,5.93
2018-06-19T07:43:10.675Z,6.40
2018-06-19T07:45:39.317Z,6.90
2018-06-19T07:48:07.917Z,6.70
2018-06-19T07:50:36.414Z,6.37
2018-06-19T07:53:05.068Z,7.23
2018-06-19T07:55:34.017Z,7.40
2018-06-19T07:58:02.984Z,6.33
2018-06-19T08:00:31.640Z,7.30
2018-06-19T08:03:00.139Z,7.60
2018-06-19T08:05:28.627Z,8.00
2018-06-19T08:07:57.302Z,8.17
2018-06-19T08:10:26.030Z,7.80
2018-06-19T08:12:54.670Z,7.90
2018-06-19T08:15:23.262Z,7.37
2018-06-19T08:17:52.375Z,6.60
2018-06-19T08:20:22.268Z,7.73
2018-06-19T08:22:51.016Z,7.83
2018-06-19T08:25:21.040Z,8.53
2018-06-19T08:27:50.189Z,7.83
2018-06-19T08:30:19.416Z,8.10
2018-06-19T08:32:47.894Z,7.87
2018-06-19T08:35:16.722Z,8.10
2018-06-19T08:37:45.182Z,9.17
2018-06-19T08:40:13.698Z,8.97
2018-06-19T08:42:42.321Z,8.40
2018-06-19T08:45:10.878Z,8.40
2018-06-19T08:47:39.460Z,8.37
2018-06-19T08:50:07.932Z,8.10
2018-06-19T08:52:36.639Z,8.50
2018-06-19T08:55:05.463Z,8.60
2018-06-19T08:57:34.016Z,8.87
2018-06-19T09:00:02.710Z,8.57
2018-06-19T09:02:31.344Z,8.50
2018-06-19T09:05:00.046Z,9.17
2018-06-19T09:07:32.952Z,9.47
2018-06-19T09:10:01.574Z,8.80
2018-06-19T09:12:30.069Z,7.03
2018-06-19T09:14:58.880Z,8.27
2018-06-19T09:17:27.515Z,7.90
2018-06-19T09:19:56.566Z,8.50
2018-06-19T09:22:25.537Z,8.17
2018-06-19T09:24:54.601Z,7.87
2018-06-19T09:27:23.172Z,9.10
2018-06-19T09:29:51.704Z,8.17
2018-06-19T09:32:20.632Z,7.77
2018-06-19T09:34:49.112Z,8.80
2018-06-19T09:37:17.280Z,8.30
2018-06-19T09:39:46.380Z,8.80
2018-06-19T09:42:14.904Z,9.33
2018-06-19T09:44:43.634Z,8.20
2018-06-19T09:47:12.142Z,8.77
2018-06-19T09:49:40.750Z,8.97
2018-06-19T09:52:09.425Z,8.53
2018-06-19T09:54:38.418Z,8.40
2018-06-19T09:57:07.802Z,9.23
2018-06-19T09:59:36.585Z,9.73
2018-06-19T10:02:05.188Z,8.57
2018-06-19T10:04:33.812Z,9.53
2018-06-19T10:07:02.397Z,10.00
2018-06-19T10:09:30.883Z,9.43
2018-06-19T10:11:59.811Z,9.67
2018-06-19T10:14:28.428Z,8.67
2018-06-19T10:16:57.013Z,7.87
2018-06-19T10:19:25.565Z,8.37
2018-06-19T10:21:54.083Z,7.53
2018-06-19T10:24:23.522Z,8.00
2018-06-19T10:26:52.225Z,8.10
2018-06-19T10:29:20.701Z,8.40
2018-06-19T10:31:49.285Z,7.73
2018-06-19T10:34:18.281Z,6.83
2018-06-19T10:36:46.866Z,6.90
2018-06-19T10:39:15.888Z,6.30
2018-06-19T10:41:44.505Z,7.07
2018-06-19T10:44:13.726Z,6.37
2018-06-19T10:46:42.453Z,6.87
2018-06-19T10:49:11.004Z,7.70
2018-06-19T10:51:39.502Z,6.43
2018-06-19T10:54:07.999Z,5.70
2018-06-19T10:56:36.144Z,6.33
2018-06-19T10:59:04.753Z,6.30
2018-06-19T11:01:33.508Z,7.40
2018-06-19T11:04:02.017Z,6.03
2018-06-19T11:06:30.518Z,6.80
2018-06-19T11:08:59.093Z,6.70
2018-06-19T11:11:27.929Z,6.50
2018-06-19T11:13:56.438Z,5.90
2018-06-19T11:16:25.724Z,5.20
2018-06-19T11:18:54.291Z,5.00
2018-06-19T11:21:23.564Z,4.67
2018-06-19T11:23:52.463Z,4.97
2018-06-19T11:26:21.059Z,4.87
2018-06-19T11:28:49.560Z,5.67
2018-06-19T11:31:18.029Z,5.40
2018-06-19T11:33:46.521Z,5.07
2018-06-19T11:36:15.052Z,4.50
2018-06-19T11:38:43.801Z,4.67
2018-06-19T11:41:12.380Z,4.43
2018-06-19T11:43:41.109Z,4.47
2018-06-19T11:46:09.650Z,4.37
2018-06-19T11:48:38.447Z,4.40
2018-06-19T11:51:07.219Z,4.90
2018-06-19T11:53:35.752Z,5.47
2018-06-19T11:56:04.270Z,4.80
2018-06-19T11:58:32.803Z,4.80
2018-06-19T12:01:01.597Z,4.53
2018-06-19T12:03:30.149Z,5.17
2018-06-19T12:05:58.738Z,5.37
2018-06-19T12:08:27.551Z,4.63
2018-06-19T12:10:56.240Z,5.00
2018-06-19T12:13:25.341Z,5.60
2018-06-19T12:15:54.220Z,5.53
2018-06-19T12:18:22.935Z,5.10
2018-06-19T12:20:51.600Z,5.27
2018-06-19T12:23:20.189Z,5.57
2018-06-19T12:25:48.836Z,5.67
2018-06-19T12:31:29.807Z,4.37
2018-06-19T12:33:58.605Z,4.10
2018-06-19T12:36:27.828Z,4.80
2018-06-19T12:38:56.534Z,5.30
2018-06-19T12:41:35.259Z,5.27
2018-06-19T12:44:04.132Z,4.10
2018-06-19T12:46:32.760Z,5.23
2018-06-19T12:49:01.894Z,5.83
2018-06-19T12:52:40.304Z,5.10
2018-06-19T12:55:28.225Z,5.07
2018-06-19T12:57:56.847Z,5.50
2018-06-19T13:00:25.369Z,5.30
2018-06-19T13:03:05.200Z,4.83
2018-06-19T13:05:45.072Z,5.43
2018-06-19T13:08:13.757Z,5.40
2018-06-19T13:10:42.324Z,4.90
2018-06-19T13:13:24.182Z,5.10
2018-06-19T13:15:53.398Z,4.77
2018-06-19T13:18:34.242Z,3.70
2018-06-19T13:21:03.037Z,4.40
2018-06-19T13:23:31.999Z,3.87
2018-06-19T13:26:00.559Z,3.87
2018-06-19T13:28:40.815Z,4.80
2018-06-19T13:31:20.772Z,3.60
2018-06-19T13:33:49.391Z,3.53
2018-06-19T13:36:17.906Z,3.97
2018-06-19T13:38:46.601Z,3.83
2018-06-19T13:41:28.617Z,4.20
2018-06-19T13:44:13.120Z,3.63
2018-06-19T13:46:42.448Z,3.23
2018-06-19T13:49:11.005Z,3.90
2018-06-19T13:51:39.492Z,3.80
2018-06-19T13:54:08.158Z,3.57
2018-06-19T13:56:56.614Z,3.43
2018-06-19T13:59:25.218Z,3.90
2018-06-19T14:01:54.133Z,3.90
2018-06-19T14:04:23.833Z,5.10
2018-06-19T14:06:52.629Z,3.90
2018-06-19T14:09:46.088Z,3.73
2018-06-19T14:12:57.236Z,3.57
2018-06-19T14:15:26.579Z,4.00
2018-06-19T14:17:55.380Z,3.90
2018-06-19T14:20:24.101Z,4.70
2018-06-19T14:22:52.684Z,3.53
2018-06-19T14:25:21.589Z,4.80
2018-06-19T14:27:50.779Z,4.03
2018-06-19T14:30:19.694Z,3.80
2018-06-19T14:32:50.424Z,4.13
2018-06-19T14:35:19.318Z,4.87
2018-06-19T14:37:48.228Z,4.27
2018-06-19T14:40:18.045Z,4.30
2018-06-19T14:42:47.495Z,4.33
2018-06-19T14:45:16.097Z,4.97
2018-06-19T14:47:45.749Z,4.13
2018-06-19T14:50:14.639Z,4.90
2018-06-19T14:52:43.568Z,4.90
2018-06-19T14:55:12.237Z,4.50
2018-06-19T14:57:41.033Z,4.40
2018-06-19T15:00:10.820Z,3.80
2018-06-19T15:02:39.903Z,3.40
2018-06-19T15:05:09.225Z,3.73
2018-06-19T15:07:43.281Z,4.60
2018-06-19T15:10:11.907Z,4.13
2018-06-19T15:12:40.403Z,4.20
2018-06-19T15:15:09.264Z,4.33
2018-06-19T15:17:37.984Z,4.10
2018-06-19T15:20:07.152Z,4.77
2018-06-19T15:22:35.640Z,4.30
2018-06-19T15:25:04.496Z,3.90
2018-06-19T15:27:34.575Z,3.70
2018-06-19T15:30:03.592Z,3.73
2018-06-19T15:32:32.284Z,4.17
2018-06-19T15:35:00.850Z,3.57
2018-06-19T15:37:29.465Z,4.00
2018-06-19T15:39:57.923Z,4.43
2018-06-19T15:42:26.506Z,6.00
2018-06-19T15:44:54.809Z,3.90
2018-06-19T15:47:24.513Z,5.87
2018-06-19T15:49:53.048Z,4.80
2018-06-19T15:52:21.575Z,4.57
2018-06-19T15:54:50.582Z,4.50
2018-06-19T15:57:19.208Z,7.03
2018-06-19T15:59:47.727Z,5.73
2018-06-19T16:02:16.188Z,8.40
2018-06-19T16:04:45.364Z,4.93
2018-06-19T16:07:13.870Z,11.20
2018-06-19T16:09:42.318Z,5.70
2018-06-19T16:12:10.823Z,5.50
2018-06-19T16:14:39.420Z,4.43
2018-06-19T16:17:08.008Z,8.10
2018-06-19T16:19:37.194Z,6.77
2018-06-19T16:22:05.896Z,6.87
2018-06-19T16:24:34.564Z,9.63
2018-06-19T16:27:03.189Z,15.23
2018-06-19T16:29:32.202Z,5.93
2018-06-19T16:32:00.655Z,11.13
2018-06-19T16:34:29.301Z,5.73
2018-06-19T16:36:57.909Z,4.80
2018-06-19T16:39:26.386Z,6.20
2018-06-19T16:41:54.928Z,4.30
2018-06-19T16:44:23.407Z,5.23
2018-06-19T16:46:51.941Z,3.83
2018-06-19T16:49:20.416Z,5.10
2018-06-19T16:51:49.204Z,4.30
2018-06-19T16:54:17.668Z,3.30
2018-06-19T16:56:46.213Z,4.30
2018-06-19T16:59:14.757Z,4.60
2018-06-19T17:01:43.462Z,4.27
2018-06-19T17:04:11.926Z,4.47
2018-06-19T17:06:40.222Z,4.60
2018-06-19T17:09:09.250Z,3.90
2018-06-19T17:11:37.777Z,4.10
2018-06-19T17:14:06.619Z,3.47
2018-06-19T17:16:35.662Z,4.53
2018-06-19T17:19:05.036Z,4.43
2018-06-19T17:21:34.466Z,5.00
2018-06-19T17:24:03.259Z,4.97
2018-06-19T17:26:31.707Z,4.10
2018-06-19T17:29:00.217Z,4.27
2018-06-19T17:31:28.791Z,4.13
2018-06-19T17:33:57.441Z,3.70
2018-06-19T17:36:26.260Z,4.47
2018-06-19T17:38:54.720Z,4.20
2018-06-19T17:41:23.517Z,4.37
2018-06-19T17:43:52.066Z,3.63
2018-06-19T17:46:20.652Z,4.30
2018-06-19T17:48:49.473Z,3.87
2018-06-19T17:51:18.134Z,3.50
2018-06-19T17:53:46.914Z,3.90
2018-06-19T17:56:15.704Z,3.80
2018-06-19T17:58:43.957Z,4.30
2018-06-19T18:01:12.477Z,4.30
2018-06-19T18:03:40.928Z,3.97
2018-06-19T18:06:09.698Z,4.73
2018-06-19T18:08:38.386Z,4.53
2018-06-19T18:11:07.010Z,4.33
2018-06-19T18:13:36.378Z,3.90
2018-06-19T18:16:05.074Z,4.23
2018-06-19T18:18:33.597Z,4.20
2018-06-19T18:21:01.895Z,4.40
2018-06-19T18:23:30.664Z,3.70
2018-06-19T18:25:59.272Z,4.20
2018-06-19T18:28:28.294Z,4.10
2018-06-19T18:30:57.504Z,4.63
2018-06-19T18:33:26.511Z,4.17
2018-06-19T18:35:55.472Z,3.97
2018-06-19T18:38:25.494Z,4.10
2018-06-19T18:40:53.998Z,4.90
2018-06-19T18:43:22.602Z,4.37
2018-06-19T18:45:51.349Z,4.47
2018-06-19T18:48:19.969Z,4.53
2018-06-19T18:50:48.458Z,4.10
2018-06-19T18:53:16.955Z,4.03
2018-06-19T18:55:45.511Z,5.13
2018-06-19T18:58:14.045Z,4.17
2018-06-19T19:00:44.551Z,4.53
2018-06-19T19:03:15.053Z,5.50
2018-06-19T19:05:43.595Z,5.57
2018-06-19T19:08:17.457Z,5.00
2018-06-19T19:10:49.752Z,4.47
2018-06-19T19:13:19.068Z,4.53
2018-06-19T19:15:52.808Z,4.90
2018-06-19T19:18:26.525Z,5.70
2018-06-19T19:20:56.089Z,5.10
2018-06-19T19:23:24.645Z,5.47
2018-06-19T19:25:53.704Z,6.37
2018-06-19T19:29:00.324Z,5.30
2018-06-19T19:31:43.926Z,5.40
2018-06-19T19:34:12.740Z,4.33
2018-06-19T19:36:47.902Z,5.00
2018-06-19T19:39:21.958Z,5.90
2018-06-19T19:41:50.537Z,5.90
2018-06-19T19:44:19.137Z,6.23
2018-06-19T19:46:53.249Z,5.30
2018-06-19T19:49:22.303Z,5.47
2018-06-19T19:51:50.856Z,7.60
2018-06-19T19:54:19.349Z,6.37
2018-06-19T19:56:53.328Z,6.17
2018-06-19T19:59:21.776Z,5.50
2018-06-19T20:01:50.634Z,6.90
2018-06-19T20:04:19.064Z,6.93
2018-06-19T20:06:47.557Z,7.03
2018-06-19T20:09:16.025Z,6.07
2018-06-19T20:11:44.641Z,7.03
2018-06-19T20:14:13.834Z,6.70
2018-06-19T20:16:42.677Z,7.63
2018-06-19T20:19:14.077Z,7.00
2018-06-19T20:21:43.106Z,7.90
2018-06-19T20:24:11.605Z,6.90
2018-06-19T20:26:40.451Z,7.70
2018-06-19T20:29:09.147Z,7.27
2018-06-19T20:31:37.742Z,7.17
2018-06-19T20:34:06.521Z,6.17
2018-06-19T20:36:35.081Z,6.57
2018-06-19T20:39:04.818Z,6.37
2018-06-19T20:41:33.295Z,6.07
2018-06-19T20:44:01.845Z,7.00
2018-06-19T20:46:30.308Z,7.17
2018-06-19T20:48:58.918Z,7.00
2018-06-19T20:51:27.817Z,7.00
2018-06-19T20:53:56.336Z,7.30
2018-06-19T20:56:24.853Z,6.47
2018-06-19T20:58:53.339Z,7.27
2018-06-19T21:01:21.932Z,7.27
2018-06-19T21:03:50.412Z,6.17
2018-06-19T21:06:19.028Z,7.43
2018-06-19T21:08:48.063Z,6.07
2018-06-19T21:11:16.688Z,5.90
2018-06-19T21:13:45.285Z,5.70
2018-06-19T21:16:13.858Z,5.70
2018-06-19T21:18:42.697Z,5.80
2018-06-19T21:21:11.099Z,6.13
2018-06-19T21:23:40.375Z,6.00
2018-06-19T21:26:08.820Z,5.40
2018-06-19T21:28:37.356Z,5.63
2018-06-19T21:31:05.969Z,5.63
2018-06-19T21:33:34.544Z,5.93
2018-06-19T21:36:03.236Z,7.57
2018-06-19T21:38:31.613Z,5.87
2018-06-19T21:41:00.106Z,6.70
2018-06-19T21:43:28.579Z,6.37
2018-06-19T21:45:57.068Z,6.13
2018-06-19T21:48:25.539Z,6.90
2018-06-19T21:50:55.095Z,6.40
2018-06-19T21:53:23.655Z,6.43
2018-06-19T21:55:52.131Z,5.60
2018-06-19T21:58:20.914Z,5.47
2018-06-19T22:00:49.769Z,6.37
2018-06-19T22:03:18.253Z,6.53
2018-06-19T22:05:46.869Z,6.37
2018-06-19T22:08:15.289Z,5.57
2018-06-19T22:10:43.729Z,6.00
2018-06-19T22:13:12.186Z,5.70
2018-06-19T22:15:40.670Z,6.77
2018-06-19T22:18:09.160Z,5.93
2018-06-19T22:20:37.752Z,5.40
2018-06-19T22:23:06.332Z,6.00
2018-06-19T22:25:34.926Z,5.90
2018-06-19T22:28:03.488Z,5.40
2018-06-19T22:30:31.977Z,5.30
2018-06-19T22:33:00.989Z,6.17
2018-06-19T22:35:29.765Z,6.23
2018-06-19T22:37:58.283Z,6.07
2018-06-19T22:40:26.878Z,5.80
2018-06-19T22:42:55.619Z,5.60
2018-06-19T22:45:24.098Z,5.37
2018-06-19T22:47:52.516Z,6.47
2018-06-19T22:50:21.541Z,5.57
2018-06-19T22:52:50.291Z,6.30
2018-06-19T22:55:19.151Z,6.07
2018-06-19T22:57:48.158Z,5.93
2018-06-19T23:00:19.096Z,5.70
2018-06-19T23:02:48.146Z,6.20
2018-06-19T23:05:16.821Z,5.73
2018-06-19T23:07:45.645Z,6.50
2018-06-19T23:10:14.143Z,6.90
2018-06-19T23:12:42.671Z,5.87
2018-06-19T23:15:11.153Z,6.90
2018-06-19T23:17:39.715Z,5.83
2018-06-19T23:20:08.244Z,6.40
2018-06-19T23:22:36.714Z,6.00
2018-06-19T23:25:05.429Z,7.90
2018-06-19T23:27:34.244Z,6.17
2018-06-19T23:30:02.898Z,6.07
2018-06-19T23:32:30.991Z,5.47
2018-06-19T23:34:59.454Z,6.47
2018-06-19T23:37:27.940Z,6.00
2018-06-19T23:39:56.469Z,6.33
2018-06-19T23:42:25.072Z,5.63
2018-06-19T23:44:53.531Z,6.63
2018-06-19T23:47:22.016Z,5.70
2018-06-19T23:49:50.962Z,6.07
2018-06-19T23:52:19.143Z,6.97
2018-06-19T23:54:47.988Z,7.20
2018-06-19T23:57:16.476Z,6.70
2018-06-19T23:59:44.975Z,5.80
